createdAt,value
2022-12-11T00:00:58.322Z,99460.02
2022-12-11T00:05:20.484Z,99459.05
2022-12-11T00:09:27.829Z,99460.52
2022-12-11T00:13:35.793Z,99464.35
2022-12-11T00:17:43.404Z,99465.94
2022-12-11T00:21:51.813Z,99452.02
2022-12-11T00:25:59.653Z,99453.75
2022-12-11T00:30:09.881Z,99458.45
2022-12-11T00:34:17.839Z,99457.92
2022-12-11T00:38:25.601Z,99458.98
2022-12-11T00:42:33.289Z,99455.66
2022-12-11T00:46:41.143Z,99452.65
2022-12-11T00:50:49.515Z,99447.98
2022-12-11T00:54:59.668Z,99444.05
2022-12-11T00:59:12.492Z,99443.89
2022-12-11T01:03:20.375Z,99443.41
2022-12-11T01:07:28.254Z,99456.02
2022-12-11T01:11:35.391Z,99475.52
2022-12-11T01:15:45.176Z,99474.77
2022-12-11T01:19:52.882Z,99475.80
2022-12-11T01:24:00.668Z,99476.17
2022-12-11T01:28:08.496Z,99482.29
2022-12-11T01:32:16.188Z,99485.54
2022-12-11T01:36:24.685Z,99491.61
2022-12-11T01:40:32.189Z,99480.36
2022-12-11T01:45:19.596Z,99479.38
2022-12-11T01:49:28.838Z,99478.16
2022-12-11T01:53:39.182Z,99474.30
2022-12-11T01:57:49.028Z,99467.39
2022-12-11T02:01:59.278Z,99458.58
2022-12-11T02:06:07.529Z,99446.91
2022-12-11T02:10:15.537Z,99434.73
2022-12-11T02:14:30.668Z,99433.19
2022-12-11T02:18:43.901Z,99429.38
2022-12-11T02:23:08.073Z,99425.17
2022-12-11T02:27:29.143Z,99426.59
2022-12-11T02:31:40.390Z,99424.22
2022-12-11T02:35:49.717Z,99429.30
2022-12-11T02:39:59.091Z,99431.53
2022-12-11T02:44:08.448Z,99428.88
2022-12-11T02:48:17.068Z,99432.37
2022-12-11T02:52:26.152Z,99430.92
2022-12-11T02:56:38.813Z,99440.36
2022-12-11T03:00:47.095Z,99441.56
2022-12-11T03:04:54.866Z,99441.95
2022-12-11T03:09:03.068Z,99442.02
2022-12-11T03:13:10.309Z,99438.41
2022-12-11T03:17:21.078Z,99432.38
2022-12-11T03:21:33.806Z,99425.79
2022-12-11T03:25:45.082Z,99431.18
2022-12-11T03:29:57.043Z,99434.99
2022-12-11T03:34:09.620Z,99435.55
2022-12-11T03:38:20.357Z,99434.91
2022-12-11T03:42:28.324Z,99434.75
2022-12-11T03:46:38.678Z,99432.78
2022-12-11T03:50:46.600Z,99433.45
2022-12-11T03:54:54.403Z,99434.48
2022-12-11T03:59:02.631Z,99428.27
2022-12-11T04:03:18.157Z,99427.79
2022-12-11T04:07:26.813Z,99420.81
2022-12-11T04:11:37.133Z,99419.55
2022-12-11T04:15:44.960Z,99414.43
2022-12-11T04:20:10.270Z,99419.33
2022-12-11T04:24:17.905Z,99408.80
2022-12-11T04:28:25.242Z,99410.75
2022-12-11T04:32:33.210Z,99415.98
2022-12-11T04:36:41.742Z,99418.23
2022-12-11T04:40:49.691Z,99413.58
2022-12-11T04:44:57.723Z,99412.58
2022-12-11T04:49:05.727Z,99413.64
2022-12-11T04:53:13.983Z,99411.89
2022-12-11T04:57:22.068Z,99410.67
2022-12-11T05:01:29.551Z,99402.31
2022-12-11T05:05:36.953Z,99398.30
2022-12-11T05:09:44.492Z,99396.23
2022-12-11T05:13:52.069Z,99392.46
2022-12-11T05:18:00.165Z,99393.73
2022-12-11T05:22:07.740Z,99390.98
2022-12-11T05:26:17.129Z,99388.94
2022-12-11T05:30:24.584Z,99390.14
2022-12-11T05:34:31.697Z,99388.08
2022-12-11T05:38:38.784Z,99386.88
2022-12-11T05:42:47.835Z,99386.75
2022-12-11T05:46:56.414Z,99385.17
2022-12-11T05:51:05.837Z,99383.63
2022-12-11T05:55:14.264Z,99388.84
2022-12-11T05:59:21.970Z,99384.16
2022-12-11T06:03:29.517Z,99393.89
2022-12-11T06:07:37.710Z,99394.77
2022-12-11T06:11:45.041Z,99388.68
2022-12-11T06:15:53.255Z,99390.86
2022-12-11T06:20:00.754Z,99396.83
2022-12-11T06:24:14.762Z,99399.25
2022-12-11T06:28:22.712Z,99402.05
2022-12-11T06:32:31.126Z,99410.06
2022-12-11T06:36:38.668Z,99411.46
2022-12-11T06:40:46.177Z,99414.57
2022-12-11T06:44:54.735Z,99418.05
2022-12-11T06:49:02.525Z,99425.20
2022-12-11T06:53:11.288Z,99423.46
2022-12-11T06:57:20.072Z,99423.99
2022-12-11T07:01:30.113Z,99423.10
2022-12-11T07:05:38.075Z,99424.51
2022-12-11T07:09:45.929Z,99430.46
2022-12-11T07:13:53.896Z,99435.55
2022-12-11T07:18:01.381Z,99440.95
2022-12-11T07:22:09.073Z,99437.82
2022-12-11T07:26:19.433Z,99438.52
2022-12-11T07:30:27.344Z,99441.99
2022-12-11T07:34:34.944Z,99437.45
2022-12-11T07:38:46.578Z,99437.80
2022-12-11T07:42:54.026Z,99443.91
2022-12-11T07:47:01.622Z,99443.84
2022-12-11T07:51:15.176Z,99447.20
2022-12-11T07:55:22.601Z,99451.90
2022-12-11T07:59:30.717Z,99449.34
2022-12-11T08:03:38.626Z,99449.15
2022-12-11T08:07:45.976Z,99448.44
2022-12-11T08:11:54.714Z,99453.52
2022-12-11T08:16:04.154Z,99447.77
2022-12-11T08:20:13.260Z,99440.31
2022-12-11T08:24:21.244Z,99444.45
2022-12-11T08:28:29.475Z,99449.98
2022-12-11T08:32:36.799Z,99446.84
2022-12-11T08:36:44.952Z,99445.98
2022-12-11T08:40:56.527Z,99446.17
2022-12-11T08:45:05.016Z,99448.05
2022-12-11T08:49:12.792Z,99450.23
2022-12-11T08:53:20.485Z,99443.77
2022-12-11T08:57:28.074Z,99446.00
2022-12-11T09:01:36.329Z,99442.51
2022-12-11T09:05:44.318Z,99454.52
2022-12-11T09:09:51.770Z,99453.70
2022-12-11T09:14:05.177Z,99453.06
2022-12-11T09:18:15.395Z,99446.47
2022-12-11T09:22:22.839Z,99438.81
2022-12-11T09:26:31.304Z,99436.38
2022-12-11T09:30:38.900Z,99426.84
2022-12-11T09:34:47.063Z,99424.08
2022-12-11T09:38:55.332Z,99417.30
2022-12-11T09:43:08.456Z,99415.17
2022-12-11T09:47:22.409Z,99410.47
2022-12-11T09:51:32.313Z,99410.59
2022-12-11T09:55:48.286Z,99403.15
2022-12-11T10:00:09.332Z,99401.20
2022-12-11T10:04:31.487Z,99395.95
2022-12-11T10:08:45.634Z,99388.46
2022-12-11T10:13:00.161Z,99382.03
2022-12-11T10:17:12.612Z,99373.68
2022-12-11T10:21:21.539Z,99370.56
2022-12-11T10:25:31.376Z,99361.88
2022-12-11T10:29:38.925Z,99362.02
2022-12-11T10:33:59.907Z,99363.91
2022-12-11T10:38:17.379Z,99362.30
2022-12-11T10:42:25.900Z,99361.42
2022-12-11T10:46:34.104Z,99361.42
2022-12-11T10:50:44.780Z,99359.41
2022-12-11T10:54:59.439Z,99353.87
2022-12-11T10:59:07.567Z,99351.96
2022-12-11T11:03:25.366Z,99347.16
2022-12-11T11:07:34.608Z,99342.38
2022-12-11T11:11:50.779Z,99342.66
2022-12-11T11:16:04.498Z,99330.52
2022-12-11T11:20:19.070Z,99325.34
2022-12-11T11:24:32.131Z,99318.77
2022-12-11T11:28:41.739Z,99317.07
2022-12-11T11:32:50.521Z,99314.95
2022-12-11T11:37:06.214Z,99311.76
2022-12-11T11:41:16.989Z,99307.25
2022-12-11T11:45:28.589Z,99302.49
2022-12-11T11:49:46.929Z,99293.77
2022-12-11T11:53:58.957Z,99295.75
2022-12-11T11:58:11.647Z,99292.98
2022-12-11T12:02:21.557Z,99289.64
2022-12-11T12:06:38.997Z,99292.34
2022-12-11T12:10:52.690Z,99295.02
2022-12-11T12:15:10.885Z,99297.73
2022-12-11T12:19:26.505Z,99299.24
2022-12-11T12:23:54.313Z,99296.48
2022-12-11T12:28:12.023Z,99294.63
2022-12-11T12:32:25.785Z,99296.06
2022-12-11T12:36:42.273Z,99298.50
2022-12-11T12:41:06.445Z,99289.62
2022-12-11T12:45:23.876Z,99290.48
2022-12-11T12:49:43.346Z,99287.39
2022-12-11T12:53:57.163Z,99282.75
2022-12-11T12:58:06.704Z,99284.58
2022-12-11T13:02:18.466Z,99282.73
2022-12-11T13:06:34.756Z,99284.48
2022-12-11T13:10:44.821Z,99289.84
2022-12-11T13:14:59.315Z,99294.13
2022-12-11T13:19:22.355Z,99296.05
2022-12-11T13:23:34.766Z,99295.73
2022-12-11T13:27:43.799Z,99297.50
2022-12-11T13:32:00.410Z,99290.96
2022-12-11T13:36:27.437Z,99290.04
2022-12-11T13:40:44.890Z,99289.10
2022-12-11T13:44:52.545Z,99288.91
2022-12-11T13:49:02.780Z,99293.14
2022-12-11T13:53:15.643Z,99284.52
2022-12-11T13:57:25.947Z,99289.94
2022-12-11T14:01:36.222Z,99289.44
2022-12-11T14:05:45.295Z,99293.76
2022-12-11T14:09:52.553Z,99298.73
2022-12-11T14:14:01.843Z,99296.38
2022-12-11T14:18:10.698Z,99291.54
2022-12-11T14:22:22.803Z,99295.92
2022-12-11T14:26:32.109Z,99304.86
2022-12-11T14:30:41.409Z,99298.29
2022-12-11T14:34:49.513Z,99295.66
2022-12-11T14:38:58.948Z,99296.08
2022-12-11T14:43:11.111Z,99290.31
2022-12-11T14:47:21.546Z,99289.52
2022-12-11T14:51:32.700Z,99286.80
2022-12-11T14:55:41.234Z,99292.77
2022-12-11T14:59:50.579Z,99295.80
2022-12-11T15:04:09.029Z,99290.90
2022-12-11T15:08:26.300Z,99292.76
2022-12-11T15:12:35.178Z,99295.52
2022-12-11T15:16:44.026Z,99300.40
2022-12-11T15:20:55.695Z,99297.48
2022-12-11T15:25:04.173Z,99295.51
2022-12-11T15:29:36.379Z,99293.13
2022-12-11T15:33:50.360Z,99298.48
2022-12-11T15:37:59.774Z,99299.65
2022-12-11T15:42:08.397Z,99297.73
2022-12-11T15:46:16.041Z,99295.33
2022-12-11T15:50:25.541Z,99299.17
2022-12-11T15:54:34.873Z,99293.49
2022-12-11T15:58:42.599Z,99290.95
2022-12-11T16:02:52.031Z,99290.47
2022-12-11T16:07:03.843Z,99290.42
2022-12-11T16:11:14.581Z,99293.52
2022-12-11T16:15:24.080Z,99295.77
2022-12-11T16:19:32.303Z,99296.86
2022-12-11T16:23:40.403Z,99304.53
2022-12-11T16:27:48.500Z,99304.05
2022-12-11T16:31:56.335Z,99303.17
2022-12-11T16:36:04.886Z,99298.22
2022-12-11T16:40:14.590Z,99295.17
2022-12-11T16:44:24.863Z,99295.16
2022-12-11T16:48:33.037Z,99297.95
2022-12-11T16:52:40.747Z,99293.33
2022-12-11T16:56:48.514Z,99289.54
2022-12-11T17:01:02.228Z,99292.05
2022-12-11T17:05:11.072Z,99287.19
2022-12-11T17:09:19.114Z,99283.30
2022-12-11T17:13:26.369Z,99278.91
2022-12-11T17:17:36.538Z,99279.96
2022-12-11T17:21:49.883Z,99282.41
2022-12-11T17:25:59.422Z,99281.76
2022-12-11T17:30:08.212Z,99281.28
2022-12-11T17:34:17.213Z,99281.33
2022-12-11T17:38:25.561Z,99278.33
2022-12-11T17:42:33.936Z,99277.92
2022-12-11T17:46:42.264Z,99283.96
2022-12-11T17:50:51.039Z,99286.08
2022-12-11T17:54:58.750Z,99285.75
2022-12-11T17:59:06.679Z,99282.86
2022-12-11T18:03:15.056Z,99289.64
2022-12-11T18:07:23.006Z,99285.21
2022-12-11T18:11:30.969Z,99291.25
2022-12-11T18:15:39.246Z,99292.83
2022-12-11T18:19:46.799Z,99292.67
2022-12-11T18:23:54.950Z,99289.23
2022-12-11T18:28:03.002Z,99299.00
2022-12-11T18:32:11.186Z,99294.02
2022-12-11T18:36:20.299Z,99302.16
2022-12-11T18:40:28.905Z,99298.10
2022-12-11T18:44:38.002Z,99296.84
2022-12-11T18:48:48.070Z,99297.52
2022-12-11T18:53:00.177Z,99295.48
2022-12-11T18:57:08.487Z,99296.08
2022-12-11T19:01:19.475Z,99294.70
2022-12-11T19:05:28.122Z,99290.49
2022-12-11T19:09:38.509Z,99284.05
2022-12-11T19:13:46.973Z,99278.89
2022-12-11T19:17:54.645Z,99276.33
2022-12-11T19:22:04.785Z,99277.25
2022-12-11T19:26:16.018Z,99272.27
2022-12-11T19:30:24.097Z,99276.09
2022-12-11T19:34:32.317Z,99271.75
2022-12-11T19:38:41.019Z,99269.30
2022-12-11T19:42:48.887Z,99268.92
2022-12-11T19:46:56.608Z,99270.10
2022-12-11T19:51:08.564Z,99270.84
2022-12-11T19:55:16.754Z,99275.36
2022-12-11T19:59:24.317Z,99275.73
2022-12-11T20:03:32.431Z,99274.85
2022-12-11T20:07:40.223Z,99272.73
2022-12-11T20:11:48.750Z,99274.23
2022-12-11T20:15:56.835Z,99272.85
2022-12-11T20:20:04.782Z,99272.05
2022-12-11T20:24:12.926Z,99266.71
2022-12-11T20:28:21.514Z,99265.49
2022-12-11T20:32:29.589Z,99265.33
2022-12-11T20:36:40.383Z,99268.27
2022-12-11T20:40:50.832Z,99268.27
2022-12-11T20:44:58.953Z,99267.27
2022-12-11T20:49:12.792Z,99260.06
2022-12-11T20:53:21.786Z,99257.30
2022-12-11T20:57:29.608Z,99258.15
2022-12-11T21:01:38.587Z,99255.16
2022-12-11T21:05:47.028Z,99255.11
2022-12-11T21:09:54.996Z,99252.48
2022-12-11T21:14:02.879Z,99250.57
2022-12-11T21:18:11.526Z,99249.75
2022-12-11T21:22:19.967Z,99247.87
2022-12-11T21:26:28.496Z,99251.04
2022-12-11T21:30:36.451Z,99250.85
2022-12-11T21:34:44.331Z,99252.06
2022-12-11T21:38:54.370Z,99252.60
2022-12-11T21:43:02.174Z,99255.55
2022-12-11T21:47:09.985Z,99254.31
2022-12-11T21:51:21.020Z,99252.06
2022-12-11T21:55:30.562Z,99255.70
2022-12-11T21:59:38.566Z,99257.98
2022-12-11T22:03:46.660Z,99255.61
2022-12-11T22:07:54.281Z,99250.27
2022-12-11T22:12:02.312Z,99257.23
2022-12-11T22:16:09.930Z,99249.92
2022-12-11T22:20:18.339Z,99243.63
2022-12-11T22:24:26.580Z,99239.97
2022-12-11T22:28:34.493Z,99236.13
2022-12-11T22:32:43.529Z,99236.98
2022-12-11T22:36:51.740Z,99237.33
2022-12-11T22:41:00.015Z,99239.26
2022-12-11T22:45:09.515Z,99244.50
2022-12-11T22:49:17.325Z,99240.01
2022-12-11T22:53:25.490Z,99238.29
2022-12-11T22:57:33.618Z,99237.25
2022-12-11T23:01:41.353Z,99234.30
2022-12-11T23:05:49.228Z,99231.34
2022-12-11T23:09:56.935Z,99230.80
2022-12-11T23:14:04.768Z,99234.21
2022-12-11T23:18:12.486Z,99230.48
2022-12-11T23:22:20.007Z,99229.05
2022-12-11T23:26:28.654Z,99226.64
2022-12-11T23:30:36.483Z,99227.55
2022-12-11T23:34:43.855Z,99228.45
2022-12-11T23:38:54.735Z,99224.13
2022-12-11T23:43:03.696Z,99225.67
2022-12-11T23:47:11.660Z,99230.67
2022-12-11T23:51:21.187Z,99232.38
2022-12-11T23:55:30.012Z,99233.90
2022-12-11T23:59:37.882Z,99226.77
